Terminal Aerodrome Forecast
Issued by NWS

Home | Current Version | Previous Version | Text Only | Print | Product List | Glossary On
Versions: 1 2 3 4 5 6 7 8 9 10 11 12
000
FTUS42 KTBW 162327
TAFLAL
TAF
KLAL 162327Z 1700/1724 VRB04KT P6SM SCT300
     FM170800 VRB03KT 4SM BR FEW010 SCT250
      TEMPO 1709/1713 1SM BR SCT005
     FM171400 35006KT P6SM SCT015 SCT350
     FM171700 31012G18KT P6SM BKN035
     FM172100 31011KT P6SM SCT030=

USA.gov is the U.S. government's official web portal to all federal, state and local government web resources and services.